默认 日期 大小 文件数 浏览量 最新下载 xml
gog-磁力链接相关资源由用户搜索指令自动获取,结果来源于网络,本站不存储任何资料,亦不承担任何责任,请于24小时内删除,搜索到84768个磁力,显示前4000条数据,用时9ms。
    {"!Install DLC v1.3.bat": 1962, "The Legend of Heroes - Trails of Cold Steel II - DLC v1.3": {"setup_the_legend_of_heroes_trails_of_cold_steel_ii_-_all_glasses_1.3_(19362).exe": 5807120, "setup_the_legend_of_heroes_trails_of_cold_steel_ii_- ...
创建时间: 2018-11-07 11:52:57 大小:14.02 GB 文件数量:54 热度:10 最近下载:2025-03-23 23:42:02
    {"planet_nomads_wallpapers.zip": 8573612, "setup_planet_nomads_0.8.14.0_(21085).exe": 1774714152}
创建时间: 2018-11-07 11:57:29 大小:1.66 GB 文件数量:2 热度:10 最近下载:2025-03-15 22:27:02
    {"READ ME.txt": 840, "setup_raptor.exe": 37148086}
创建时间: 2018-11-07 12:36:00 大小:35.43 MB 文件数量:2 热度:11 最近下载:2025-08-08 16:50:04
    {"RARBG.txt": 31, "iknow.nfo": 20825, "ik-tdgog.bin": 584528448, "ik-tdgog.cue": 74}
创建时间: 2018-11-07 13:44:17 大小:557.47 MB 文件数量:4 热度:16 最近下载:2025-03-26 19:02:07
    {"Bonus Content": {"Manual": {"Robin Hood TLoS Manual.pdf": 6786715}, "Avatars": {"RobinHood_avatar1.jpg": 51586, "RobinHood_avatar2.jpg": 62040}, "Artworks": {"Derby.jpg": 636290, "Robin.jpg": 457864, "castle_1.jpg": 1071073, "castle_2.jpg": 783858, " ...
创建时间: 2018-11-07 13:44:23 大小:1.32 GB 文件数量:48 热度:16 最近下载:2025-01-12 13:44:03
    {"carmageddon_manual.zip": 980873, "carmageddon_avatars.zip": 71093, "carmageddon_tips_book.zip": 24887830, "carmageddon_wallpaper.zip": 1053708, "carmageddon_soundtrack.zip": 48408188, "carmageddon_concept_arts.zip": 2132300, "carmageddon_reference_card. ...
创建时间: 2018-11-07 14:11:44 大小:379.24 MB 文件数量:9 热度:7 最近下载:2023-10-30 18:29:51
    {"Bonus": {"nwn_2_mow_walkthrough.zip": 499812, "nwn_2_complete_avatars.zip": 809469, "nwn_2_complete_manuals.zip": 10879413, "nwn_2_complete_artworks.zip": 9015982, "nwn_2_complete_wallpapers.zip": 15775270, "nwn_2_complete_soundtracks.zip": 378434248, " ...
创建时间: 2018-11-07 14:55:31 大小:45.27 GB 文件数量:26 热度:6 最近下载:2023-04-10 07:40:06
    {"twom_ost_mp3.zip": 42996660, "twom_ost_wav.zip": 292625749, "twom_soundtrack_flac.zip": 123149227, "twom_little_ones_wallpaper.zip": 5956893, "this_war_of_mine_wallpapers.zip": 2356212, "setup_this_war_of_mine_3.0.3_(13785).exe": 1142755096, " ...
创建时间: 2018-11-07 15:02:51 大小:1.51 GB 文件数量:7 热度:5 最近下载:2023-04-10 07:50:10
    {"autorun.inf": 1204, "WWW.SUMOTORRENT.SZ.jpg": 101088, "Enter the Gungeon (4.10.2.15) (GOG).exe": 11524840, "Torrent downloaded from extremlymtorrents.me.txt": 56}
创建时间: 2018-11-07 15:09:37 大小:11.09 MB 文件数量:4 热度:12 最近下载:2025-08-05 00:02:18
    {"www.limetorrents.com.jpg": 81660, "Hollow Knight v1.0.4.8-GOG.exe": 11128640, "Torrent downloaded from extremlymtorrents.me.txt": 44}
创建时间: 2018-11-07 15:09:59 大小:10.69 MB 文件数量:3 热度:5 最近下载:2023-04-10 07:50:11
    {"corpse_party_avatars.zip": 615879, "corpse_party_artworks.zip": 80648178, "corpse_party_wallpapers.zip": 2825843, "setup_corpse_party_2017.11.19_(16916).exe": 856089952}
创建时间: 2018-11-07 15:14:34 大小:896.63 MB 文件数量:4 热度:6 最近下载:2023-04-10 07:50:09
    {"BATTLETECH v1 04-GOG.exe": 7879460, "Torrent downloaded from 1337x.org.txt": 64}
创建时间: 2018-11-07 15:16:01 大小:7.51 MB 文件数量:2 热度:9 最近下载:2025-02-09 09:46:09
    {"Bonus Content": {"lure_of_the_temptress_manual.zip": 2197619}, "setup_lure_of_the_temptress.exe": 12584641}
创建时间: 2018-11-07 15:23:38 大小:14.1 MB 文件数量:2 热度:25 最近下载:2025-07-31 15:25:02
    {"setup_bounty_train_1.0.13761_(12038).exe": 858447504, "setup_bounty_train_trainium_edition_1.0.13832_(15873).exe": 6046232}
创建时间: 2018-11-07 15:28:11 大小:824.45 MB 文件数量:2 热度:5 最近下载:2023-04-10 08:00:14
    {"venom_codename_outbreak_manual.zip": 1617648, "setup_venom_codename_outbreak_2.0.0.6.exe": 530710784, "setup_venom_codename_outbreak_russian_2.0.0.6.exe": 536800432}
创建时间: 2018-11-07 15:47:28 大小:1019.6 MB 文件数量:3 热度:11 最近下载:2025-03-07 14:02:02
    {"setup_postal_2_complete.exe": 942537015}
创建时间: 2018-11-07 15:51:29 大小:898.87 MB 文件数量:1 热度:5 最近下载:2023-04-10 08:20:04
    {"README.txt": 2936, "doom2_2.0.0.6.exe": 21908760}
创建时间: 2018-11-07 16:09:03 大小:20.9 MB 文件数量:2 热度:10 最近下载:2025-02-04 07:25:01
    {"Readme.pdf": 9452, "Wizard of Legend v0.1. (GOG).exe": 16006968, "Torrent downloaded from Flashtorrents.org.txt": 52}
创建时间: 2018-11-07 17:54:31 大小:15.27 MB 文件数量:3 热度:4 最近下载:2023-04-10 08:50:01
    {"duskers": {"setup_duskers_2.0.0.3.exe": 85387032}, "README.txt": 3071}
创建时间: 2018-11-07 17:55:29 大小:81.43 MB 文件数量:2 热度:6 最近下载:2023-04-10 08:50:01
    {"crack": {"run_a9ebd.exe": 281910}, "WWW.SUMOTORRENT.SZ.jpg": 111260, "Stardew Valley (5.6.0.8) (GOG).exe": 9522000, "Torrent downloaded from extremlymtorrents.me.txt": 44}
创建时间: 2018-11-07 18:02:31 大小:9.46 MB 文件数量:4 热度:7 最近下载:2024-12-17 08:44:02